sensor_id;sensor_type;location;lat;lon;timestamp;P1;durP1;ratioP1;P2;durP2;ratioP2
31872;SDS011;22407;42.820;23.374;2022-11-15T00:00:05;29.60;;;23.33;;
31872;SDS011;22407;42.820;23.374;2022-11-15T00:02:30;32.77;;;25.50;;
31872;SDS011;22407;42.820;23.374;2022-11-15T00:04:56;35.37;;;23.40;;
31872;SDS011;22407;42.820;23.374;2022-11-15T00:07:21;32.00;;;23.73;;
31872;SDS011;22407;42.820;23.374;2022-11-15T00:09:46;36.67;;;25.40;;
31872;SDS011;22407;42.820;23.374;2022-11-15T00:12:12;35.40;;;24.30;;
31872;SDS011;22407;42.820;23.374;2022-11-15T00:14:37;44.83;;;30.57;;
31872;SDS011;22407;42.820;23.374;2022-11-15T00:17:02;59.25;;;33.33;;
31872;SDS011;22407;42.820;23.374;2022-11-15T00:19:28;48.73;;;30.37;;
31872;SDS011;22407;42.820;23.374;2022-11-15T00:21:53;45.07;;;28.47;;
31872;SDS011;22407;42.820;23.374;2022-11-15T00:24:19;44.90;;;29.33;;
31872;SDS011;22407;42.820;23.374;2022-11-15T00:26:44;51.28;;;33.45;;
31872;SDS011;22407;42.820;23.374;2022-11-15T00:29:09;43.30;;;29.53;;
31872;SDS011;22407;42.820;23.374;2022-11-15T00:31:35;43.27;;;28.50;;
31872;SDS011;22407;42.820;23.374;2022-11-15T00:34:00;58.80;;;35.20;;
31872;SDS011;22407;42.820;23.374;2022-11-15T00:36:25;54.00;;;32.40;;
31872;SDS011;22407;42.820;23.374;2022-11-15T00:38:51;66.67;;;38.00;;
31872;SDS011;22407;42.820;23.374;2022-11-15T00:41:16;77.87;;;39.97;;
31872;SDS011;22407;42.820;23.374;2022-11-15T00:43:41;95.43;;;43.67;;
31872;SDS011;22407;42.820;23.374;2022-11-15T00:46:08;81.00;;;41.83;;
31872;SDS011;22407;42.820;23.374;2022-11-15T00:48:34;106.35;;;47.85;;
31872;SDS011;22407;42.820;23.374;2022-11-15T00:51:00;114.50;;;52.45;;
31872;SDS011;22407;42.820;23.374;2022-11-15T00:53:25;110.87;;;46.53;;
31872;SDS011;22407;42.820;23.374;2022-11-15T00:55:51;110.47;;;46.80;;
31872;SDS011;22407;42.820;23.374;2022-11-15T00:58:16;122.43;;;48.53;;
31872;SDS011;22407;42.820;23.374;2022-11-15T01:00:41;129.17;;;53.43;;
31872;SDS011;22407;42.820;23.374;2022-11-15T01:03:07;118.23;;;51.97;;
31872;SDS011;22407;42.820;23.374;2022-11-15T01:05:32;87.77;;;42.53;;
31872;SDS011;22407;42.820;23.374;2022-11-15T01:07:57;86.88;;;40.92;;
31872;SDS011;22407;42.820;23.374;2022-11-15T01:10:23;86.47;;;40.47;;
31872;SDS011;22407;42.820;23.374;2022-11-15T01:12:50;85.63;;;40.75;;
31872;SDS011;22407;42.820;23.374;2022-11-15T01:15:16;72.28;;;37.17;;
31872;SDS011;22407;42.820;23.374;2022-11-15T01:17:41;68.53;;;36.43;;
31872;SDS011;22407;42.820;23.374;2022-11-15T01:20:06;66.83;;;36.93;;
31872;SDS011;22407;42.820;23.374;2022-11-15T01:22:32;64.07;;;35.13;;
31872;SDS011;22407;42.820;23.374;2022-11-15T01:24:57;62.20;;;36.13;;
31872;SDS011;22407;42.820;23.374;2022-11-15T01:27:23;66.87;;;37.60;;
31872;SDS011;22407;42.820;23.374;2022-11-15T01:29:48;83.83;;;44.50;;
31872;SDS011;22407;42.820;23.374;2022-11-15T01:32:13;80.95;;;40.75;;
31872;SDS011;22407;42.820;23.374;2022-11-15T01:34:39;90.03;;;44.20;;
31872;SDS011;22407;42.820;23.374;2022-11-15T01:37:04;94.17;;;44.87;;
31872;SDS011;22407;42.820;23.374;2022-11-15T01:39:29;84.57;;;43.33;;
31872;SDS011;22407;42.820;23.374;2022-11-15T01:41:55;91.97;;;44.50;;
31872;SDS011;22407;42.820;23.374;2022-11-15T01:47:24;90.32;;;45.30;;
31872;SDS011;22407;42.820;23.374;2022-11-15T01:52:17;75.40;;;38.43;;
31872;SDS011;22407;42.820;23.374;2022-11-15T01:54:44;77.15;;;40.03;;
31872;SDS011;22407;42.820;23.374;2022-11-15T01:57:09;65.73;;;37.70;;
31872;SDS011;22407;42.820;23.374;2022-11-15T01:59:37;69.18;;;38.25;;
31872;SDS011;22407;42.820;23.374;2022-11-15T02:02:03;74.03;;;38.58;;
31872;SDS011;22407;42.820;23.374;2022-11-15T02:04:29;68.97;;;37.85;;
31872;SDS011;22407;42.820;23.374;2022-11-15T02:06:56;83.43;;;41.55;;
31872;SDS011;22407;42.820;23.374;2022-11-15T02:09:21;85.63;;;43.67;;
31872;SDS011;22407;42.820;23.374;2022-11-15T02:11:47;91.73;;;43.37;;
31872;SDS011;22407;42.820;23.374;2022-11-15T02:14:13;89.28;;;45.40;;
31872;SDS011;22407;42.820;23.374;2022-11-15T02:27:16;107.97;;;47.67;;
31872;SDS011;22407;42.820;23.374;2022-11-15T02:32:25;104.95;;;44.70;;
31872;SDS011;22407;42.820;23.374;2022-11-15T02:40:11;88.30;;;46.90;;
31872;SDS011;22407;42.820;23.374;2022-11-15T02:42:53;87.33;;;43.67;;
31872;SDS011;22407;42.820;23.374;2022-11-15T02:45:39;86.90;;;46.40;;
31872;SDS011;22407;42.820;23.374;2022-11-15T02:48:05;91.63;;;46.85;;
31872;SDS011;22407;42.820;23.374;2022-11-15T02:50:31;88.53;;;46.03;;
31872;SDS011;22407;42.820;23.374;2022-11-15T02:52:57;76.55;;;40.13;;
31872;SDS011;22407;42.820;23.374;2022-11-15T02:55:30;66.53;;;37.80;;
31872;SDS011;22407;42.820;23.374;2022-11-15T03:00:32;66.90;;;36.70;;
31872;SDS011;22407;42.820;23.374;2022-11-15T03:03:21;69.07;;;39.08;;
31872;SDS011;22407;42.820;23.374;2022-11-15T03:08:26;84.33;;;42.47;;
31872;SDS011;22407;42.820;23.374;2022-11-15T03:11:10;100.80;;;46.13;;
31872;SDS011;22407;42.820;23.374;2022-11-15T03:16:13;68.40;;;38.40;;
31872;SDS011;22407;42.820;23.374;2022-11-15T03:18:47;58.58;;;36.08;;
31872;SDS011;22407;42.820;23.374;2022-11-15T03:21:14;55.27;;;34.17;;
31872;SDS011;22407;42.820;23.374;2022-11-15T03:23:39;77.23;;;40.30;;
31872;SDS011;22407;42.820;23.374;2022-11-15T03:26:06;72.70;;;40.77;;
31872;SDS011;22407;42.820;23.374;2022-11-15T03:28:33;58.03;;;34.47;;
31872;SDS011;22407;42.820;23.374;2022-11-15T03:31:00;63.72;;;34.25;;
31872;SDS011;22407;42.820;23.374;2022-11-15T03:33:47;63.33;;;36.78;;
31872;SDS011;22407;42.820;23.374;2022-11-15T03:36:12;55.85;;;32.88;;
31872;SDS011;22407;42.820;23.374;2022-11-15T03:38:38;56.50;;;34.47;;
31872;SDS011;22407;42.820;23.374;2022-11-15T03:41:05;53.13;;;34.30;;
31872;SDS011;22407;42.820;23.374;2022-11-15T03:46:07;56.22;;;34.42;;
31872;SDS011;22407;42.820;23.374;2022-11-15T03:48:40;60.43;;;34.50;;
31872;SDS011;22407;42.820;23.374;2022-11-15T03:51:06;63.22;;;37.22;;
31872;SDS011;22407;42.820;23.374;2022-11-15T03:53:32;66.10;;;39.10;;
31872;SDS011;22407;42.820;23.374;2022-11-15T03:55:58;59.95;;;37.45;;
31872;SDS011;22407;42.820;23.374;2022-11-15T03:58:23;50.80;;;32.43;;
31872;SDS011;22407;42.820;23.374;2022-11-15T04:00:48;55.17;;;35.20;;
31872;SDS011;22407;42.820;23.374;2022-11-15T04:03:14;55.83;;;34.07;;
31872;SDS011;22407;42.820;23.374;2022-11-15T04:05:39;50.80;;;33.83;;
31872;SDS011;22407;42.820;23.374;2022-11-15T04:08:05;53.33;;;33.33;;
31872;SDS011;22407;42.820;23.374;2022-11-15T04:10:30;52.30;;;32.80;;
31872;SDS011;22407;42.820;23.374;2022-11-15T04:12:55;53.37;;;34.43;;
31872;SDS011;22407;42.820;23.374;2022-11-15T04:15:21;52.43;;;34.27;;
31872;SDS011;22407;42.820;23.374;2022-11-15T04:17:48;53.55;;;32.10;;
31872;SDS011;22407;42.820;23.374;2022-11-15T04:20:24;50.73;;;34.90;;
31872;SDS011;22407;42.820;23.374;2022-11-15T04:23:10;52.03;;;35.08;;
31872;SDS011;22407;42.820;23.374;2022-11-15T04:25:54;49.42;;;33.13;;
31872;SDS011;22407;42.820;23.374;2022-11-15T04:28:20;50.63;;;33.70;;
31872;SDS011;22407;42.820;23.374;2022-11-15T04:30:46;56.37;;;36.00;;
31872;SDS011;22407;42.820;23.374;2022-11-15T04:33:11;54.10;;;34.50;;
31872;SDS011;22407;42.820;23.374;2022-11-15T04:35:37;53.30;;;34.87;;
31872;SDS011;22407;42.820;23.374;2022-11-15T04:38:02;50.33;;;33.77;;
31872;SDS011;22407;42.820;23.374;2022-11-15T04:40:28;53.80;;;37.33;;
31872;SDS011;22407;42.820;23.374;2022-11-15T04:42:53;52.67;;;37.95;;
31872;SDS011;22407;42.820;23.374;2022-11-15T04:45:19;57.13;;;38.40;;
31872;SDS011;22407;42.820;23.374;2022-11-15T04:47:44;53.77;;;36.73;;
31872;SDS011;22407;42.820;23.374;2022-11-15T04:50:10;56.55;;;37.90;;
31872;SDS011;22407;42.820;23.374;2022-11-15T04:52:39;55.45;;;37.75;;
31872;SDS011;22407;42.820;23.374;2022-11-15T04:55:04;57.33;;;38.03;;
31872;SDS011;22407;42.820;23.374;2022-11-15T04:57:30;52.53;;;37.87;;
31872;SDS011;22407;42.820;23.374;2022-11-15T04:59:55;52.20;;;35.30;;
31872;SDS011;22407;42.820;23.374;2022-11-15T05:02:20;51.63;;;34.83;;
31872;SDS011;22407;42.820;23.374;2022-11-15T05:04:46;56.63;;;37.23;;
31872;SDS011;22407;42.820;23.374;2022-11-15T05:07:11;57.92;;;37.70;;
31872;SDS011;22407;42.820;23.374;2022-11-15T05:09:36;224.27;;;90.20;;
31872;SDS011;22407;42.820;23.374;2022-11-15T05:12:02;136.30;;;65.40;;
31872;SDS011;22407;42.820;23.374;2022-11-15T05:14:27;74.97;;;45.53;;
31872;SDS011;22407;42.820;23.374;2022-11-15T05:16:52;66.93;;;41.37;;
31872;SDS011;22407;42.820;23.374;2022-11-15T05:19:18;64.83;;;41.83;;
31872;SDS011;22407;42.820;23.374;2022-11-15T05:21:43;60.70;;;39.43;;
31872;SDS011;22407;42.820;23.374;2022-11-15T05:24:09;63.80;;;41.40;;
31872;SDS011;22407;42.820;23.374;2022-11-15T05:26:35;57.77;;;37.00;;
31872;SDS011;22407;42.820;23.374;2022-11-15T05:29:00;57.35;;;36.83;;
31872;SDS011;22407;42.820;23.374;2022-11-15T05:31:26;57.00;;;38.10;;
31872;SDS011;22407;42.820;23.374;2022-11-15T05:33:52;60.35;;;38.95;;
31872;SDS011;22407;42.820;23.374;2022-11-15T05:36:24;56.90;;;36.53;;
31872;SDS011;22407;42.820;23.374;2022-11-15T05:38:50;59.70;;;36.40;;
31872;SDS011;22407;42.820;23.374;2022-11-15T05:41:17;60.13;;;40.30;;
31872;SDS011;22407;42.820;23.374;2022-11-15T05:43:44;59.20;;;37.03;;
31872;SDS011;22407;42.820;23.374;2022-11-15T05:46:10;56.80;;;36.10;;
31872;SDS011;22407;42.820;23.374;2022-11-15T05:48:36;58.20;;;35.23;;
31872;SDS011;22407;42.820;23.374;2022-11-15T05:51:02;54.20;;;33.15;;
31872;SDS011;22407;42.820;23.374;2022-11-15T05:53:29;58.00;;;34.58;;
31872;SDS011;22407;42.820;23.374;2022-11-15T05:55:54;52.50;;;33.38;;
31872;SDS011;22407;42.820;23.374;2022-11-15T05:58:20;53.13;;;34.40;;
31872;SDS011;22407;42.820;23.374;2022-11-15T06:00:45;54.27;;;32.07;;
31872;SDS011;22407;42.820;23.374;2022-11-15T06:03:11;55.50;;;33.40;;
31872;SDS011;22407;42.820;23.374;2022-11-15T06:05:36;63.07;;;36.40;;
31872;SDS011;22407;42.820;23.374;2022-11-15T06:08:01;61.83;;;35.77;;
31872;SDS011;22407;42.820;23.374;2022-11-15T06:10:27;69.73;;;39.80;;
31872;SDS011;22407;42.820;23.374;2022-11-15T06:12:56;79.03;;;43.23;;
31872;SDS011;22407;42.820;23.374;2022-11-15T06:15:22;85.83;;;44.87;;
31872;SDS011;22407;42.820;23.374;2022-11-15T06:17:47;80.97;;;43.53;;
31872;SDS011;22407;42.820;23.374;2022-11-15T06:20:12;78.67;;;43.47;;
31872;SDS011;22407;42.820;23.374;2022-11-15T06:22:38;82.00;;;43.77;;
31872;SDS011;22407;42.820;23.374;2022-11-15T06:25:03;81.27;;;43.50;;
31872;SDS011;22407;42.820;23.374;2022-11-15T06:27:28;80.93;;;44.00;;
31872;SDS011;22407;42.820;23.374;2022-11-15T06:29:54;75.53;;;41.07;;
31872;SDS011;22407;42.820;23.374;2022-11-15T06:32:25;75.77;;;39.70;;
31872;SDS011;22407;42.820;23.374;2022-11-15T06:34:50;68.55;;;41.03;;
31872;SDS011;22407;42.820;23.374;2022-11-15T06:37:15;62.35;;;36.20;;
31872;SDS011;22407;42.820;23.374;2022-11-15T06:39:41;64.87;;;38.43;;
31872;SDS011;22407;42.820;23.374;2022-11-15T06:42:07;68.97;;;39.07;;
31872;SDS011;22407;42.820;23.374;2022-11-15T06:44:33;63.70;;;39.13;;
31872;SDS011;22407;42.820;23.374;2022-11-15T06:46:58;71.17;;;40.63;;
31872;SDS011;22407;42.820;23.374;2022-11-15T06:49:23;68.13;;;39.43;;
31872;SDS011;22407;42.820;23.374;2022-11-15T06:51:49;63.90;;;36.57;;
31872;SDS011;22407;42.820;23.374;2022-11-15T06:54:14;61.00;;;33.83;;
31872;SDS011;22407;42.820;23.374;2022-11-15T06:56:40;59.50;;;35.83;;
31872;SDS011;22407;42.820;23.374;2022-11-15T06:59:05;52.77;;;31.53;;
31872;SDS011;22407;42.820;23.374;2022-11-15T07:01:30;57.92;;;32.35;;
31872;SDS011;22407;42.820;23.374;2022-11-15T07:03:56;53.27;;;31.47;;
31872;SDS011;22407;42.820;23.374;2022-11-15T07:06:21;52.17;;;29.53;;
31872;SDS011;22407;42.820;23.374;2022-11-15T07:08:46;54.00;;;29.77;;
31872;SDS011;22407;42.820;23.374;2022-11-15T07:11:12;55.45;;;30.20;;
31872;SDS011;22407;42.820;23.374;2022-11-15T07:13:37;57.67;;;30.97;;
31872;SDS011;22407;42.820;23.374;2022-11-15T07:16:07;64.70;;;38.60;;
31872;SDS011;22407;42.820;23.374;2022-11-15T07:18:36;56.53;;;35.28;;
31872;SDS011;22407;42.820;23.374;2022-11-15T07:21:05;61.72;;;36.08;;
31872;SDS011;22407;42.820;23.374;2022-11-15T07:23:30;54.95;;;30.63;;
31872;SDS011;22407;42.820;23.374;2022-11-15T07:25:57;54.67;;;32.87;;
31872;SDS011;22407;42.820;23.374;2022-11-15T07:28:23;57.88;;;31.92;;
31872;SDS011;22407;42.820;23.374;2022-11-15T07:30:48;61.73;;;35.70;;
31872;SDS011;22407;42.820;23.374;2022-11-15T07:33:13;62.93;;;35.33;;
31872;SDS011;22407;42.820;23.374;2022-11-15T07:35:39;60.30;;;34.13;;
31872;SDS011;22407;42.820;23.374;2022-11-15T07:38:04;60.97;;;34.23;;
31872;SDS011;22407;42.820;23.374;2022-11-15T07:40:30;59.50;;;33.43;;
31872;SDS011;22407;42.820;23.374;2022-11-15T07:43:03;58.92;;;32.50;;
31872;SDS011;22407;42.820;23.374;2022-11-15T07:45:29;53.28;;;30.05;;
31872;SDS011;22407;42.820;23.374;2022-11-15T07:47:54;53.35;;;29.98;;
31872;SDS011;22407;42.820;23.374;2022-11-15T07:50:21;47.65;;;28.15;;
31872;SDS011;22407;42.820;23.374;2022-11-15T07:52:46;44.53;;;28.73;;
31872;SDS011;22407;42.820;23.374;2022-11-15T07:55:12;48.00;;;28.97;;
31872;SDS011;22407;42.820;23.374;2022-11-15T07:57:37;48.00;;;28.97;;
31872;SDS011;22407;42.820;23.374;2022-11-15T08:00:04;41.75;;;26.65;;
31872;SDS011;22407;42.820;23.374;2022-11-15T08:02:29;38.20;;;25.05;;
31872;SDS011;22407;42.820;23.374;2022-11-15T08:04:54;38.67;;;26.53;;
31872;SDS011;22407;42.820;23.374;2022-11-15T08:07:20;40.40;;;26.23;;
31872;SDS011;22407;42.820;23.374;2022-11-15T08:09:45;42.28;;;26.67;;
31872;SDS011;22407;42.820;23.374;2022-11-15T08:12:10;36.57;;;25.70;;
31872;SDS011;22407;42.820;23.374;2022-11-15T08:14:36;45.03;;;28.97;;
31872;SDS011;22407;42.820;23.374;2022-11-15T08:17:01;48.40;;;28.37;;
31872;SDS011;22407;42.820;23.374;2022-11-15T08:19:26;57.50;;;32.60;;
31872;SDS011;22407;42.820;23.374;2022-11-15T08:21:52;62.03;;;36.20;;
31872;SDS011;22407;42.820;23.374;2022-11-15T08:24:17;50.40;;;29.40;;
31872;SDS011;22407;42.820;23.374;2022-11-15T08:26:43;44.70;;;27.25;;
31872;SDS011;22407;42.820;23.374;2022-11-15T08:29:08;54.13;;;32.50;;
31872;SDS011;22407;42.820;23.374;2022-11-15T08:31:34;41.58;;;29.08;;
31872;SDS011;22407;42.820;23.374;2022-11-15T08:34:01;43.92;;;29.67;;
31872;SDS011;22407;42.820;23.374;2022-11-15T08:36:27;49.90;;;30.88;;
31872;SDS011;22407;42.820;23.374;2022-11-15T08:38:52;42.13;;;27.00;;
31872;SDS011;22407;42.820;23.374;2022-11-15T08:41:28;58.07;;;31.97;;
31872;SDS011;22407;42.820;23.374;2022-11-15T08:43:55;56.65;;;30.67;;
31872;SDS011;22407;42.820;23.374;2022-11-15T08:46:20;47.88;;;28.10;;
31872;SDS011;22407;42.820;23.374;2022-11-15T08:48:46;48.43;;;29.30;;
31872;SDS011;22407;42.820;23.374;2022-11-15T08:51:11;51.27;;;30.53;;
31872;SDS011;22407;42.820;23.374;2022-11-15T08:53:37;54.10;;;30.88;;
31872;SDS011;22407;42.820;23.374;2022-11-15T08:56:06;48.75;;;29.27;;
31872;SDS011;22407;42.820;23.374;2022-11-15T08:58:32;55.70;;;31.17;;
31872;SDS011;22407;42.820;23.374;2022-11-15T09:00:57;51.20;;;29.80;;
31872;SDS011;22407;42.820;23.374;2022-11-15T09:03:23;54.37;;;32.73;;
31872;SDS011;22407;42.820;23.374;2022-11-15T09:05:48;50.90;;;29.27;;
31872;SDS011;22407;42.820;23.374;2022-11-15T09:08:13;49.23;;;29.63;;
31872;SDS011;22407;42.820;23.374;2022-11-15T09:10:39;50.17;;;29.30;;
31872;SDS011;22407;42.820;23.374;2022-11-15T09:13:04;54.97;;;30.67;;
31872;SDS011;22407;42.820;23.374;2022-11-15T09:15:30;50.53;;;28.87;;
31872;SDS011;22407;42.820;23.374;2022-11-15T09:17:57;57.40;;;34.23;;
31872;SDS011;22407;42.820;23.374;2022-11-15T09:20:23;61.10;;;36.33;;
31872;SDS011;22407;42.820;23.374;2022-11-15T09:22:48;51.47;;;30.30;;
31872;SDS011;22407;42.820;23.374;2022-11-15T09:25:13;48.23;;;28.13;;
31872;SDS011;22407;42.820;23.374;2022-11-15T09:27:39;52.33;;;30.10;;
31872;SDS011;22407;42.820;23.374;2022-11-15T09:30:05;50.40;;;28.80;;
31872;SDS011;22407;42.820;23.374;2022-11-15T09:32:30;47.92;;;30.27;;
31872;SDS011;22407;42.820;23.374;2022-11-15T09:34:55;49.17;;;29.07;;
31872;SDS011;22407;42.820;23.374;2022-11-15T09:37:21;51.00;;;30.40;;
31872;SDS011;22407;42.820;23.374;2022-11-15T09:39:46;48.47;;;28.80;;
31872;SDS011;22407;42.820;23.374;2022-11-15T09:42:22;53.87;;;30.27;;
31872;SDS011;22407;42.820;23.374;2022-11-15T09:50:26;42.03;;;27.77;;
31872;SDS011;22407;42.820;23.374;2022-11-15T09:52:52;47.45;;;27.90;;
31872;SDS011;22407;42.820;23.374;2022-11-15T09:55:18;48.43;;;29.33;;
31872;SDS011;22407;42.820;23.374;2022-11-15T10:00:19;43.17;;;26.85;;
31872;SDS011;22407;42.820;23.374;2022-11-15T10:05:10;44.57;;;27.30;;
31872;SDS011;22407;42.820;23.374;2022-11-15T10:07:39;42.63;;;28.35;;
31872;SDS011;22407;42.820;23.374;2022-11-15T10:12:41;45.65;;;26.23;;
31872;SDS011;22407;42.820;23.374;2022-11-15T10:15:11;91.65;;;47.90;;
31872;SDS011;22407;42.820;23.374;2022-11-15T10:20:24;55.63;;;30.60;;
31872;SDS011;22407;42.820;23.374;2022-11-15T10:22:50;48.38;;;28.92;;
31872;SDS011;22407;42.820;23.374;2022-11-15T10:25:20;48.88;;;30.23;;
31872;SDS011;22407;42.820;23.374;2022-11-15T10:27:50;47.70;;;29.30;;
31872;SDS011;22407;42.820;23.374;2022-11-15T10:30:17;48.80;;;30.73;;
31872;SDS011;22407;42.820;23.374;2022-11-15T10:32:43;46.67;;;29.30;;
31872;SDS011;22407;42.820;23.374;2022-11-15T10:35:25;52.67;;;27.55;;
31872;SDS011;22407;42.820;23.374;2022-11-15T10:37:51;43.13;;;27.33;;
31872;SDS011;22407;42.820;23.374;2022-11-15T10:40:23;48.47;;;29.50;;
31872;SDS011;22407;42.820;23.374;2022-11-15T10:43:03;47.35;;;30.08;;
31872;SDS011;22407;42.820;23.374;2022-11-15T10:45:30;47.08;;;30.00;;
31872;SDS011;22407;42.820;23.374;2022-11-15T10:50:45;53.67;;;31.70;;
31872;SDS011;22407;42.820;23.374;2022-11-15T10:53:33;50.85;;;32.58;;
31872;SDS011;22407;42.820;23.374;2022-11-15T10:56:02;48.25;;;29.45;;
31872;SDS011;22407;42.820;23.374;2022-11-15T10:58:36;44.75;;;23.92;;
31872;SDS011;22407;42.820;23.374;2022-11-15T11:01:18;49.78;;;24.50;;
31872;SDS011;22407;42.820;23.374;2022-11-15T11:03:44;47.55;;;25.40;;
31872;SDS011;22407;42.820;23.374;2022-11-15T11:06:11;40.67;;;19.63;;
31872;SDS011;22407;42.820;23.374;2022-11-15T11:08:37;36.88;;;18.15;;
31872;SDS011;22407;42.820;23.374;2022-11-15T11:11:03;36.27;;;14.83;;
31872;SDS011;22407;42.820;23.374;2022-11-15T11:13:30;44.40;;;15.93;;
31872;SDS011;22407;42.820;23.374;2022-11-15T11:18:34;54.35;;;24.52;;
31872;SDS011;22407;42.820;23.374;2022-11-15T11:21:07;46.30;;;21.33;;
31872;SDS011;22407;42.820;23.374;2022-11-15T11:23:37;43.37;;;22.33;;
31872;SDS011;22407;42.820;23.374;2022-11-15T11:33:41;58.63;;;24.98;;
31872;SDS011;22407;42.820;23.374;2022-11-15T11:38:49;47.60;;;24.30;;
31872;SDS011;22407;42.820;23.374;2022-11-15T11:49:43;56.30;;;20.65;;
31872;SDS011;22407;42.820;23.374;2022-11-15T11:52:11;56.30;;;21.45;;
31872;SDS011;22407;42.820;23.374;2022-11-15T11:57:03;71.28;;;26.88;;
31872;SDS011;22407;42.820;23.374;2022-11-15T11:59:37;49.42;;;22.10;;
31872;SDS011;22407;42.820;23.374;2022-11-15T12:04:47;178.02;;;62.15;;
31872;SDS011;22407;42.820;23.374;2022-11-15T12:07:15;44.00;;;15.90;;
31872;SDS011;22407;42.820;23.374;2022-11-15T12:09:43;47.88;;;17.83;;
31872;SDS011;22407;42.820;23.374;2022-11-15T12:14:45;50.50;;;18.40;;
31872;SDS011;22407;42.820;23.374;2022-11-15T12:17:12;45.13;;;15.88;;
31872;SDS011;22407;42.820;23.374;2022-11-15T12:19:41;47.22;;;16.92;;
31872;SDS011;22407;42.820;23.374;2022-11-15T12:22:16;40.88;;;15.82;;
31872;SDS011;22407;42.820;23.374;2022-11-15T12:24:52;45.67;;;17.80;;
31872;SDS011;22407;42.820;23.374;2022-11-15T12:29:46;42.60;;;15.38;;
31872;SDS011;22407;42.820;23.374;2022-11-15T12:32:18;38.00;;;14.30;;
31872;SDS011;22407;42.820;23.374;2022-11-15T12:34:48;39.55;;;14.15;;
31872;SDS011;22407;42.820;23.374;2022-11-15T12:40:15;42.03;;;15.02;;
31872;SDS011;22407;42.820;23.374;2022-11-15T12:45:37;42.08;;;15.70;;
31872;SDS011;22407;42.820;23.374;2022-11-15T12:48:49;42.33;;;15.32;;
31872;SDS011;22407;42.820;23.374;2022-11-15T12:58:42;39.05;;;14.57;;
31872;SDS011;22407;42.820;23.374;2022-11-15T13:01:08;40.50;;;15.07;;
31872;SDS011;22407;42.820;23.374;2022-11-15T13:03:34;40.05;;;14.88;;
31872;SDS011;22407;42.820;23.374;2022-11-15T13:06:00;44.30;;;16.58;;
31872;SDS011;22407;42.820;23.374;2022-11-15T13:08:43;46.05;;;17.58;;
31872;SDS011;22407;42.820;23.374;2022-11-15T13:13:53;43.83;;;18.20;;
31872;SDS011;22407;42.820;23.374;2022-11-15T13:16:20;45.73;;;18.23;;
31872;SDS011;22407;42.820;23.374;2022-11-15T13:18:52;45.97;;;18.95;;
31872;SDS011;22407;42.820;23.374;2022-11-15T13:21:24;41.93;;;18.60;;
31872;SDS011;22407;42.820;23.374;2022-11-15T13:24:15;42.40;;;18.85;;
31872;SDS011;22407;42.820;23.374;2022-11-15T13:26:41;41.95;;;19.20;;
31872;SDS011;22407;42.820;23.374;2022-11-15T13:29:16;42.97;;;19.07;;
31872;SDS011;22407;42.820;23.374;2022-11-15T13:31:43;41.97;;;19.93;;
31872;SDS011;22407;42.820;23.374;2022-11-15T13:34:25;48.80;;;21.07;;
31872;SDS011;22407;42.820;23.374;2022-11-15T13:36:51;46.03;;;20.80;;
31872;SDS011;22407;42.820;23.374;2022-11-15T13:39:30;47.10;;;21.17;;
31872;SDS011;22407;42.820;23.374;2022-11-15T13:41:55;49.90;;;20.35;;
31872;SDS011;22407;42.820;23.374;2022-11-15T13:44:22;48.93;;;20.57;;
31872;SDS011;22407;42.820;23.374;2022-11-15T13:46:47;51.65;;;22.60;;
31872;SDS011;22407;42.820;23.374;2022-11-15T13:49:13;52.20;;;22.53;;
31872;SDS011;22407;42.820;23.374;2022-11-15T13:56:32;52.67;;;22.57;;
31872;SDS011;22407;42.820;23.374;2022-11-15T13:58:59;56.78;;;23.33;;
31872;SDS011;22407;42.820;23.374;2022-11-15T14:01:24;52.47;;;22.03;;
31872;SDS011;22407;42.820;23.374;2022-11-15T14:03:56;50.30;;;21.50;;
31872;SDS011;22407;42.820;23.374;2022-11-15T14:06:23;71.63;;;28.60;;
31872;SDS011;22407;42.820;23.374;2022-11-15T14:11:33;62.95;;;22.42;;
31872;SDS011;22407;42.820;23.374;2022-11-15T14:14:20;53.63;;;20.10;;
31872;SDS011;22407;42.820;23.374;2022-11-15T14:16:45;51.83;;;19.05;;
31872;SDS011;22407;42.820;23.374;2022-11-15T14:24:30;54.67;;;22.20;;
31872;SDS011;22407;42.820;23.374;2022-11-15T14:26:56;58.03;;;22.00;;
31872;SDS011;22407;42.820;23.374;2022-11-15T14:29:24;55.07;;;21.20;;
31872;SDS011;22407;42.820;23.374;2022-11-15T14:31:50;54.97;;;21.60;;
31872;SDS011;22407;42.820;23.374;2022-11-15T14:34:16;55.43;;;20.20;;
31872;SDS011;22407;42.820;23.374;2022-11-15T14:36:41;57.00;;;21.83;;
31872;SDS011;22407;42.820;23.374;2022-11-15T14:39:06;60.60;;;21.87;;
31872;SDS011;22407;42.820;23.374;2022-11-15T14:41:34;75.40;;;27.60;;
31872;SDS011;22407;42.820;23.374;2022-11-15T14:44:02;100.53;;;34.90;;
31872;SDS011;22407;42.820;23.374;2022-11-15T14:46:28;84.57;;;31.25;;
31872;SDS011;22407;42.820;23.374;2022-11-15T14:48:54;73.50;;;26.43;;
31872;SDS011;22407;42.820;23.374;2022-11-15T14:51:19;53.83;;;20.88;;
31872;SDS011;22407;42.820;23.374;2022-11-15T14:53:45;57.30;;;20.60;;
31872;SDS011;22407;42.820;23.374;2022-11-15T14:56:11;62.35;;;21.75;;
31872;SDS011;22407;42.820;23.374;2022-11-15T14:58:36;69.00;;;25.97;;
31872;SDS011;22407;42.820;23.374;2022-11-15T15:01:03;63.17;;;25.27;;
31872;SDS011;22407;42.820;23.374;2022-11-15T15:03:33;56.20;;;21.50;;
31872;SDS011;22407;42.820;23.374;2022-11-15T15:05:58;52.67;;;19.17;;
31872;SDS011;22407;42.820;23.374;2022-11-15T15:08:24;49.73;;;19.60;;
31872;SDS011;22407;42.820;23.374;2022-11-15T15:10:49;51.80;;;19.90;;
31872;SDS011;22407;42.820;23.374;2022-11-15T15:13:22;66.13;;;29.10;;
31872;SDS011;22407;42.820;23.374;2022-11-15T15:15:48;63.38;;;30.00;;
31872;SDS011;22407;42.820;23.374;2022-11-15T15:18:13;54.83;;;24.08;;
31872;SDS011;22407;42.820;23.374;2022-11-15T15:20:40;50.70;;;22.52;;
31872;SDS011;22407;42.820;23.374;2022-11-15T15:23:16;52.83;;;24.47;;
31872;SDS011;22407;42.820;23.374;2022-11-15T15:25:42;54.97;;;28.85;;
31872;SDS011;22407;42.820;23.374;2022-11-15T15:28:08;54.67;;;29.90;;
31872;SDS011;22407;42.820;23.374;2022-11-15T15:30:33;54.07;;;29.10;;
31872;SDS011;22407;42.820;23.374;2022-11-15T15:32:59;54.00;;;26.23;;
31872;SDS011;22407;42.820;23.374;2022-11-15T15:35:25;58.30;;;31.43;;
31872;SDS011;22407;42.820;23.374;2022-11-15T15:37:53;86.85;;;50.30;;
31872;SDS011;22407;42.820;23.374;2022-11-15T15:40:20;60.23;;;35.20;;
31872;SDS011;22407;42.820;23.374;2022-11-15T15:42:46;56.55;;;31.73;;
31872;SDS011;22407;42.820;23.374;2022-11-15T15:45:11;74.35;;;39.08;;
31872;SDS011;22407;42.820;23.374;2022-11-15T15:47:37;70.37;;;41.73;;
31872;SDS011;22407;42.820;23.374;2022-11-15T15:50:03;62.30;;;37.33;;
31872;SDS011;22407;42.820;23.374;2022-11-15T15:52:28;64.88;;;38.35;;
31872;SDS011;22407;42.820;23.374;2022-11-15T15:54:54;52.97;;;33.90;;
31872;SDS011;22407;42.820;23.374;2022-11-15T15:57:19;53.90;;;33.80;;
31872;SDS011;22407;42.820;23.374;2022-11-15T15:59:44;59.53;;;36.47;;
31872;SDS011;22407;42.820;23.374;2022-11-15T16:02:13;66.57;;;37.17;;